Time;durP1;ratioP1;P1;durP2;ratioP2;P2;SDS_P1;SDS_P2;PMS_P1;PMS_P2;Temp;Humidity;BMP_temperature;BMP_pressure;BME280_temperature;BME280_humidity;BME280_pressure;Samples;Min_cycle;Max_cycle;Signal;HPM_P1;HPM_P2
2023/03/09 00:01:37;;;;;;;3.47;1.90;;;;;;;8.02;100.00;91889.00;5025942;28;20041;-63
2023/03/09 00:04:04;;;;;;;3.28;1.52;;;;;;;7.99;100.00;91882.47;5025427;28;21588;-63
2023/03/09 00:06:31;;;;;;;3.55;1.67;;;;;;;8.04;100.00;91878.41;5023302;28;20319;-62
2023/03/09 00:08:58;;;;;;;3.27;1.60;;;;;;;7.95;100.00;91865.47;5018026;28;20110;-62
2023/03/09 00:11:25;;;;;;;3.00;1.55;;;;;;;7.92;100.00;91865.59;5020302;28;20042;-62
2023/03/09 00:13:52;;;;;;;3.50;1.45;;;;;;;7.88;100.00;91860.28;5015592;28;20052;-64
2023/03/09 00:16:24;;;;;;;3.03;1.90;;;;;;;7.88;100.00;91862.25;5022279;28;20049;-62
2023/03/09 00:18:53;;;;;;;3.55;1.77;;;;;;;7.90;100.00;91873.47;5019638;28;20045;-63
2023/03/09 00:21:36;;;;;;;3.37;1.60;;;;;;;7.83;100.00;91874.53;5018283;28;20413;-63
2023/03/09 00:24:05;;;;;;;5.47;1.80;;;;;;;7.83;100.00;91869.06;5021138;28;20060;-62
2023/03/09 00:26:34;;;;;;;2.83;1.50;;;;;;;7.92;100.00;91863.63;5022126;28;20430;-62
2023/03/09 00:29:00;;;;;;;3.08;1.80;;;;;;;7.87;100.00;91896.22;5023775;28;20449;-62
2023/03/09 00:31:27;;;;;;;3.05;1.95;;;;;;;7.93;100.00;91884.28;5023077;28;20037;-63
2023/03/09 00:33:54;;;;;;;2.80;1.70;;;;;;;7.94;100.00;91866.66;5026271;28;20409;-63
2023/03/09 00:36:21;;;;;;;2.75;1.42;;;;;;;7.96;100.00;91858.03;5021965;28;20106;-62
2023/03/09 00:38:52;;;;;;;4.60;1.75;;;;;;;8.01;100.00;91862.91;5020722;28;20041;-62
2023/03/09 00:41:21;;;;;;;3.55;1.60;;;;;;;8.00;100.00;91867.59;5025386;28;20411;-63
2023/03/09 00:43:48;;;;;;;4.13;1.77;;;;;;;8.05;100.00;91881.88;5022856;28;20107;-62
2023/03/09 00:46:15;;;;;;;2.77;1.60;;;;;;;8.16;100.00;91901.38;5021376;28;20045;-62
2023/03/09 00:48:42;;;;;;;3.30;2.00;;;;;;;8.19;100.00;91898.50;5020306;28;20505;-62
2023/03/09 00:51:10;;;;;;;4.03;2.03;;;;;;;8.21;100.00;91911.72;5025160;28;20045;-63
2023/03/09 00:53:38;;;;;;;3.20;1.70;;;;;;;8.14;100.00;91904.53;5021523;28;20037;-64
2023/03/09 00:56:08;;;;;;;3.08;1.67;;;;;;;8.04;100.00;91905.72;5023527;28;20039;-63
2023/03/09 00:58:35;;;;;;;2.70;1.40;;;;;;;7.99;100.00;91915.25;5024740;28;20056;-63
2023/03/09 01:01:07;;;;;;;2.53;1.33;;;;;;;7.95;100.00;91914.63;5027562;28;20041;-63
2023/03/09 01:03:34;;;;;;;3.10;1.75;;;;;;;8.06;100.00;91921.66;5026695;28;20038;-63
2023/03/09 01:06:02;;;;;;;3.00;1.17;;;;;;;8.04;100.00;91911.19;5021813;28;20433;-63
2023/03/09 01:08:29;;;;;;;2.50;1.23;;;;;;;7.98;100.00;91913.72;5026067;28;20433;-63
2023/03/09 01:10:55;;;;;;;2.30;1.10;;;;;;;7.90;100.00;91939.78;5025279;28;20393;-63
2023/03/09 01:13:22;;;;;;;2.75;1.05;;;;;;;7.86;100.00;91927.47;5024792;28;20099;-64
2023/03/09 01:15:49;;;;;;;2.42;1.30;;;;;;;7.84;100.00;91927.16;5024960;28;20479;-63
2023/03/09 01:18:16;;;;;;;2.65;1.30;;;;;;;7.87;100.00;91920.78;5025093;28;20448;-63
2023/03/09 01:20:43;;;;;;;2.60;1.25;;;;;;;7.90;100.00;91917.19;5022064;28;20050;-63
2023/03/09 01:23:09;;;;;;;5.53;2.60;;;;;;;7.88;100.00;91901.25;5025695;28;20398;-63
2023/03/09 01:25:36;;;;;;;2.45;1.30;;;;;;;7.97;100.00;91925.13;5026250;28;20041;-62
2023/03/09 01:28:03;;;;;;;3.63;1.10;;;;;;;8.05;100.00;91904.53;5022559;28;21696;-63
2023/03/09 01:30:31;;;;;;;3.63;1.20;;;;;;;8.13;100.00;91899.53;5026151;28;20057;-63
2023/03/09 01:32:58;;;;;;;3.78;1.25;;;;;;;8.17;100.00;91895.47;5029627;28;20052;-63
2023/03/09 01:35:24;;;;;;;2.80;1.50;;;;;;;8.15;100.00;91891.66;5025248;28;20037;-63
2023/03/09 01:37:51;;;;;;;3.53;1.10;;;;;;;8.04;100.00;91894.78;5030811;28;20086;-64
2023/03/09 01:40:21;;;;;;;3.72;1.40;;;;;;;7.94;100.00;91885.03;5025997;28;20455;-63
2023/03/09 01:43:18;;;;;;;3.15;1.33;;;;;;;7.92;100.00;91885.47;5029993;28;20042;-63
2023/03/09 01:45:47;;;;;;;4.72;1.40;;;;;;;7.87;100.00;91888.81;5023731;28;20398;-63
2023/03/09 01:48:14;;;;;;;4.80;1.37;;;;;;;7.91;100.00;91896.88;5025274;28;20045;-63
2023/03/09 01:50:42;;;;;;;2.72;1.40;;;;;;;8.01;100.00;91876.56;5021144;28;20045;-64
2023/03/09 01:53:15;;;;;;;3.35;1.40;;;;;;;7.97;100.00;91865.78;5027635;28;20063;-63
2023/03/09 01:55:45;;;;;;;3.50;1.52;;;;;;;7.93;100.00;91881.56;5024614;28;20033;-62
2023/03/09 01:58:17;;;;;;;5.53;1.60;;;;;;;7.87;100.00;91898.94;5022139;28;20042;-63
2023/03/09 02:00:48;;;;;;;3.33;1.60;;;;;;;7.88;100.00;91909.44;5027779;28;20045;-63
2023/03/09 02:03:20;;;;;;;4.25;1.23;;;;;;;7.97;100.00;91916.94;5029939;28;20061;-63
2023/03/09 02:06:17;;;;;;;6.57;2.33;;;;;;;7.94;100.00;91932.22;5030941;28;20460;-63
2023/03/09 02:08:52;;;;;;;4.88;2.50;;;;;;;7.73;100.00;91947.44;5027199;28;20513;-64
2023/03/09 02:11:19;;;;;;;3.25;1.40;;;;;;;7.62;100.00;91938.09;5027823;28;20042;-64
2023/03/09 02:13:50;;;;;;;4.33;1.47;;;;;;;7.53;100.00;91928.66;5029034;28;20041;-63
2023/03/09 02:16:17;;;;;;;3.08;1.25;;;;;;;7.44;100.00;91919.63;5030922;28;20053;-63
2023/03/09 02:18:43;;;;;;;3.92;1.70;;;;;;;7.40;100.00;91933.41;5028766;28;20052;-63
2023/03/09 02:21:49;;;;;;;5.00;1.33;;;;;;;7.37;100.00;91921.41;5028657;28;20041;-63
2023/03/09 02:24:48;;;;;;;5.43;1.50;;;;;;;7.37;100.00;91909.75;5029744;28;20409;-63
2023/03/09 02:27:23;;;;;;;3.83;1.07;;;;;;;7.41;100.00;91913.09;5003025;28;20314;-64
2023/03/09 02:29:51;;;;;;;3.30;1.40;;;;;;;7.36;100.00;91900.00;5031504;28;20057;-63
2023/03/09 02:32:18;;;;;;;3.60;1.50;;;;;;;7.39;100.00;91902.63;5028972;28;20057;-63
2023/03/09 02:34:45;;;;;;;4.10;1.50;;;;;;;7.44;100.00;91904.00;5031282;28;20064;-63
2023/03/09 02:37:42;;;;;;;4.00;1.60;;;;;;;7.46;100.00;91903.56;5026307;28;20123;-63
2023/03/09 02:40:24;;;;;;;5.03;1.50;;;;;;;7.55;100.00;91909.09;5014639;28;20684;-63
2023/03/09 02:42:51;;;;;;;3.88;1.30;;;;;;;7.56;100.00;91900.44;5030915;28;20375;-63
2023/03/09 02:45:19;;;;;;;6.20;2.08;;;;;;;7.58;100.00;91898.03;5032282;28;20038;-63
2023/03/09 02:47:47;;;;;;;4.32;1.52;;;;;;;7.66;100.00;91903.25;5027053;28;20042;-63
2023/03/09 02:50:15;;;;;;;4.22;1.70;;;;;;;7.65;100.00;91888.84;5025457;28;20054;-63
2023/03/09 02:52:42;;;;;;;4.87;1.73;;;;;;;7.67;100.00;91899.31;5029450;28;20056;-63
2023/03/09 02:55:09;;;;;;;4.15;1.50;;;;;;;7.68;100.00;91925.41;5028266;28;20045;-63
2023/03/09 02:57:36;;;;;;;5.05;1.77;;;;;;;7.66;100.00;91944.94;5030915;28;20042;-64
2023/03/09 03:00:08;;;;;;;6.65;1.40;;;;;;;7.72;100.00;91961.53;5030451;28;20654;-63
2023/03/09 03:02:35;;;;;;;4.97;1.90;;;;;;;7.70;100.00;91963.94;5030261;28;20045;-64
2023/03/09 03:05:02;;;;;;;7.20;1.80;;;;;;;7.64;100.00;91976.63;5032495;28;20486;-64
2023/03/09 03:07:29;;;;;;;4.38;1.58;;;;;;;7.54;100.00;91984.00;5030704;28;20440;-64
2023/03/09 03:09:56;;;;;;;5.15;1.90;;;;;;;7.50;100.00;92005.19;5030362;28;20055;-63
2023/03/09 03:12:23;;;;;;;6.07;1.90;;;;;;;7.36;100.00;92006.44;5029811;28;20045;-63
2023/03/09 03:14:49;;;;;;;5.97;1.83;;;;;;;7.35;100.00;92016.59;5028504;28;20038;-63
2023/03/09 03:17:16;;;;;;;4.83;1.80;;;;;;;7.39;100.00;92060.13;5027772;28;20397;-64
2023/03/09 03:19:43;;;;;;;7.20;1.80;;;;;;;7.02;100.00;92080.81;5022204;28;20045;-64
2023/03/09 03:22:09;;;;;;;4.22;1.60;;;;;;;6.92;100.00;92069.03;5030297;28;20300;-64
2023/03/09 03:24:38;;;;;;;4.78;1.70;;;;;;;6.75;100.00;92079.31;5026089;28;20045;-64
2023/03/09 03:27:05;;;;;;;2.55;1.23;;;;;;;6.54;100.00;92061.63;5031151;28;20099;-64
2023/03/09 03:29:32;;;;;;;2.77;1.00;;;;;;;6.40;100.00;92090.84;5029378;28;20058;-65
2023/03/09 03:31:59;;;;;;;1.92;0.98;;;;;;;6.24;100.00;92084.69;5030043;28;20041;-64
2023/03/09 03:34:25;;;;;;;2.03;1.15;;;;;;;6.22;100.00;92098.75;5042213;28;20053;-64
2023/03/09 03:36:52;;;;;;;2.45;0.90;;;;;;;5.97;100.00;92105.63;5028512;28;20460;-64
2023/03/09 03:39:18;;;;;;;3.20;1.10;;;;;;;5.93;100.00;92104.94;5024450;28;20851;-63
2023/03/09 03:41:45;;;;;;;2.00;0.90;;;;;;;5.76;100.00;92101.50;5026732;28;20107;-63
2023/03/09 03:44:13;;;;;;;1.60;0.63;;;;;;;5.76;100.00;92100.75;5027454;28;20056;-63
2023/03/09 03:46:39;;;;;;;2.00;0.88;;;;;;;5.78;100.00;92107.28;5025646;28;20048;-63
2023/03/09 03:49:06;;;;;;;1.77;0.77;;;;;;;5.69;100.00;92119.97;5029076;28;20444;-64
2023/03/09 03:51:33;;;;;;;2.10;1.20;;;;;;;5.60;100.00;92124.06;5025935;28;20091;-64
2023/03/09 03:53:59;;;;;;;1.50;0.70;;;;;;;5.67;100.00;92123.13;5028047;28;20037;-63
2023/03/09 03:56:26;;;;;;;1.50;0.73;;;;;;;5.66;100.00;92127.03;5028481;28;20053;-64
2023/03/09 03:58:53;;;;;;;1.95;0.93;;;;;;;5.61;100.00;92122.09;5027771;28;20559;-63
2023/03/09 04:01:19;;;;;;;1.63;0.70;;;;;;;5.63;100.00;92114.28;5027904;28;21151;-63
2023/03/09 04:03:46;;;;;;;2.15;0.80;;;;;;;5.65;100.00;92116.59;5029553;28;20048;-64
2023/03/09 04:06:13;;;;;;;2.87;0.67;;;;;;;5.63;100.00;92127.88;5026438;28;20318;-64
2023/03/09 04:08:39;;;;;;;1.63;0.50;;;;;;;5.66;100.00;92148.06;5031294;28;20033;-62
2023/03/09 04:11:08;;;;;;;1.40;0.68;;;;;;;5.70;100.00;92152.22;5025187;28;20040;-64
2023/03/09 04:13:35;;;;;;;1.35;0.50;;;;;;;5.70;100.00;92162.34;5026662;28;20054;-63
2023/03/09 04:16:02;;;;;;;1.65;0.73;;;;;;;5.71;100.00;92169.31;5023886;28;20048;-63
2023/03/09 04:18:28;;;;;;;1.80;0.50;;;;;;;5.76;100.00;92160.63;5026885;28;20037;-63
2023/03/09 04:20:55;;;;;;;1.40;0.70;;;;;;;5.80;100.00;92167.50;5027153;28;20051;-63
2023/03/09 04:23:22;;;;;;;2.28;0.80;;;;;;;5.84;100.00;92166.66;5025579;28;20048;-62
2023/03/09 04:25:57;;;;;;;1.45;0.60;;;;;;;5.85;100.00;92182.53;5027208;28;20041;-62
2023/03/09 04:28:24;;;;;;;1.77;0.65;;;;;;;5.79;100.00;92192.44;5026959;28;20052;-62
2023/03/09 04:30:52;;;;;;;1.63;0.73;;;;;;;5.82;100.00;92188.88;5031764;28;20034;-63
2023/03/09 04:33:19;;;;;;;2.30;0.70;;;;;;;5.87;100.00;92198.47;5028878;28;20046;-63
2023/03/09 04:35:46;;;;;;;2.53;1.17;;;;;;;5.80;100.00;92194.72;5025529;28;20064;-63
2023/03/09 04:38:14;;;;;;;1.55;0.70;;;;;;;5.90;100.00;92187.50;5022839;28;20754;-63
2023/03/09 04:40:41;;;;;;;3.38;1.00;;;;;;;5.87;100.00;92193.78;5025989;28;20050;-62
2023/03/09 04:43:07;;;;;;;2.53;0.80;;;;;;;5.82;100.00;92202.47;5021572;28;20037;-62
2023/03/09 04:45:34;;;;;;;1.45;0.60;;;;;;;5.84;100.00;92205.53;5022342;28;20052;-64
2023/03/09 04:48:01;;;;;;;2.10;0.70;;;;;;;5.92;100.00;92206.88;5027410;28;20839;-63
2023/03/09 04:50:27;;;;;;;2.03;0.88;;;;;;;5.94;100.00;92218.09;5008134;28;20050;-63
2023/03/09 04:52:55;;;;;;;3.47;1.20;;;;;;;5.95;100.00;92229.78;5023950;28;20483;-63
2023/03/09 04:55:22;;;;;;;2.07;0.83;;;;;;;5.89;100.00;92234.19;5025926;28;20483;-63
2023/03/09 04:57:49;;;;;;;3.08;0.80;;;;;;;5.81;100.00;92236.31;5027011;28;20064;-63
2023/03/09 05:00:17;;;;;;;2.28;0.90;;;;;;;5.83;100.00;92233.16;5027576;28;20068;-63
2023/03/09 05:02:43;;;;;;;4.20;0.95;;;;;;;5.91;100.00;92243.44;5022077;28;20417;-63
2023/03/09 05:05:10;;;;;;;2.53;0.82;;;;;;;5.89;100.00;92245.06;5020458;28;20053;-63
2023/03/09 05:07:37;;;;;;;3.40;0.90;;;;;;;5.93;100.00;92248.47;5021366;28;20402;-63
2023/03/09 05:10:04;;;;;;;2.33;0.93;;;;;;;5.90;100.00;92254.78;5019303;28;20769;-63
2023/03/09 05:12:31;;;;;;;5.50;1.23;;;;;;;5.86;100.00;92263.03;5022900;28;20037;-63
2023/03/09 05:14:58;;;;;;;2.90;1.10;;;;;;;5.82;100.00;92267.03;5020398;28;20057;-63
2023/03/09 05:17:27;;;;;;;4.70;1.20;;;;;;;5.85;100.00;92266.19;5022582;28;20060;-63
2023/03/09 05:19:53;;;;;;;2.77;1.00;;;;;;;5.83;100.00;92265.84;5023938;28;20126;-63
2023/03/09 05:22:20;;;;;;;3.10;1.00;;;;;;;5.79;100.00;92263.97;5020757;28;20045;-63
2023/03/09 05:24:47;;;;;;;3.00;1.15;;;;;;;5.82;100.00;92267.81;5022720;28;20487;-62
2023/03/09 05:27:14;;;;;;;3.67;1.20;;;;;;;5.87;100.00;92271.97;5024567;28;20490;-63
2023/03/09 05:29:41;;;;;;;4.60;1.00;;;;;;;5.90;100.00;92273.84;5018191;28;20061;-62
2023/03/09 05:32:08;;;;;;;3.53;1.20;;;;;;;5.86;100.00;92268.47;5024305;28;20046;-63
2023/03/09 05:34:35;;;;;;;3.95;1.25;;;;;;;5.86;100.00;92270.44;5021020;28;20064;-63
2023/03/09 05:37:02;;;;;;;3.95;1.50;;;;;;;5.79;100.00;92282.25;5020912;28;20072;-63
2023/03/09 05:39:29;;;;;;;4.40;1.30;;;;;;;5.82;100.00;92288.81;5022671;28;20277;-63
2023/03/09 05:41:57;;;;;;;5.65;1.30;;;;;;;5.66;100.00;92286.84;5019111;28;20073;-64
2023/03/09 05:44:24;;;;;;;3.30;1.13;;;;;;;5.64;100.00;92289.22;5016829;28;20042;-63
2023/03/09 05:46:51;;;;;;;4.30;1.10;;;;;;;5.51;100.00;92295.31;5018950;28;20049;-63
2023/03/09 05:49:18;;;;;;;5.82;2.30;;;;;;;5.58;100.00;92297.88;5014404;28;20049;-63
2023/03/09 05:51:44;;;;;;;4.93;2.03;;;;;;;5.57;100.00;92301.81;5020541;28;20072;-63
2023/03/09 05:54:11;;;;;;;6.05;1.58;;;;;;;5.47;100.00;92308.22;5020600;28;20452;-63
2023/03/09 05:56:38;;;;;;;6.77;2.40;;;;;;;5.39;100.00;92317.75;5018790;28;20091;-62
2023/03/09 05:59:05;;;;;;;5.30;1.70;;;;;;;5.50;100.00;92318.28;5019974;28;20041;-64
2023/03/09 06:01:32;;;;;;;7.25;2.22;;;;;;;5.55;100.00;92323.25;5020222;28;20115;-63
2023/03/09 06:03:58;;;;;;;10.52;3.22;;;;;;;5.45;100.00;92312.56;5023038;28;20042;-63
2023/03/09 06:06:25;;;;;;;5.75;2.10;;;;;;;5.49;100.00;92324.91;5022422;28;20095;-63
2023/03/09 06:08:52;;;;;;;7.20;2.37;;;;;;;5.51;100.00;92338.09;5022256;28;20041;-63
2023/03/09 06:11:19;;;;;;;5.28;2.03;;;;;;;5.46;100.00;92350.25;5019936;28;20050;-63
2023/03/09 06:13:45;;;;;;;4.63;1.58;;;;;;;5.53;100.00;92341.16;5021512;28;20036;-63
2023/03/09 06:16:15;;;;;;;4.25;1.42;;;;;;;5.67;100.00;92340.84;5019596;28;20398;-63
2023/03/09 06:18:44;;;;;;;5.72;1.30;;;;;;;5.80;100.00;92346.41;5019535;28;20057;-63
2023/03/09 06:21:12;;;;;;;5.23;1.73;;;;;;;5.83;100.00;92340.09;5023230;28;20048;-63
2023/03/09 06:23:39;;;;;;;5.10;1.50;;;;;;;5.92;100.00;92351.19;5018657;28;20045;-63
2023/03/09 06:26:10;;;;;;;6.03;1.45;;;;;;;5.93;100.00;92357.38;5023272;28;20102;-64
2023/03/09 06:28:37;;;;;;;4.78;1.35;;;;;;;6.00;100.00;92352.56;5022260;28;20046;-63
2023/03/09 06:31:11;;;;;;;4.38;1.40;;;;;;;6.06;100.00;92365.69;5022779;28;21511;-63
2023/03/09 06:33:40;;;;;;;6.47;1.37;;;;;;;6.12;100.00;92372.16;5021545;28;20413;-63
2023/03/09 06:36:09;;;;;;;6.40;1.85;;;;;;;6.17;100.00;92382.53;5021206;28;20046;-64
2023/03/09 06:38:36;;;;;;;3.78;1.50;;;;;;;6.19;100.00;92371.97;5018684;28;20482;-63
2023/03/09 06:41:03;;;;;;;4.75;1.50;;;;;;;6.12;100.00;92372.94;5017546;28;20042;-64
2023/03/09 06:43:30;;;;;;;4.38;1.33;;;;;;;6.28;100.00;92374.88;5021744;28;20046;-64
2023/03/09 06:45:57;;;;;;;6.83;1.50;;;;;;;6.42;100.00;92387.41;5021743;28;20483;-64
2023/03/09 06:48:23;;;;;;;6.13;1.38;;;;;;;6.59;100.00;92390.88;5026550;28;20074;-64
2023/03/09 06:50:50;;;;;;;8.40;1.63;;;;;;;6.78;100.00;92411.81;5024927;28;20643;-63
2023/03/09 06:53:18;;;;;;;5.22;1.40;;;;;;;6.93;100.00;92408.72;5024373;28;20045;-64
2023/03/09 06:55:44;;;;;;;7.00;1.70;;;;;;;7.05;100.00;92413.47;5024737;28;20053;-65
2023/03/09 06:58:11;;;;;;;5.83;1.67;;;;;;;7.03;100.00;92420.56;5024423;28;20045;-64
2023/03/09 07:00:40;;;;;;;4.72;1.38;;;;;;;7.14;100.00;92423.75;5025507;28;20041;-63
2023/03/09 07:03:14;;;;;;;6.45;1.33;;;;;;;7.24;100.00;92436.34;5023942;28;20099;-64
2023/03/09 07:05:45;;;;;;;5.63;1.92;;;;;;;7.20;100.00;92444.66;5022777;28;20050;-64
2023/03/09 07:08:11;;;;;;;8.55;2.33;;;;;;;7.20;100.00;92454.78;5020847;28;20042;-64
2023/03/09 07:10:38;;;;;;;4.37;1.30;;;;;;;7.29;100.00;92454.19;5039474;28;20050;-64
2023/03/09 07:13:05;;;;;;;6.30;1.40;;;;;;;7.39;100.00;92458.59;5023653;28;20071;-64
2023/03/09 07:15:32;;;;;;;4.38;1.67;;;;;;;7.43;100.00;92475.63;5017772;28;20229;-64
2023/03/09 07:17:58;;;;;;;6.28;1.40;;;;;;;7.68;100.00;92482.38;5022429;28;20096;-64
2023/03/09 07:20:26;;;;;;;7.85;1.60;;;;;;;7.72;100.00;92480.31;5024559;28;20042;-65
2023/03/09 07:22:52;;;;;;;4.13;1.80;;;;;;;7.63;100.00;92486.41;5024861;28;20506;-65
2023/03/09 07:25:19;;;;;;;4.43;1.40;;;;;;;7.80;100.00;92485.13;5025624;28;20103;-65
2023/03/09 07:27:47;;;;;;;3.85;1.40;;;;;;;7.95;100.00;92490.97;5023331;28;20044;-65
2023/03/09 07:30:14;;;;;;;5.95;1.50;;;;;;;8.08;100.00;92493.72;5024227;28;20103;-65
2023/03/09 07:32:41;;;;;;;4.80;2.05;;;;;;;7.96;100.00;92489.75;5022612;28;20037;-65
2023/03/09 07:35:08;;;;;;;5.13;1.27;;;;;;;10.46;100.00;92470.25;5024854;28;20041;-66
2023/03/09 07:37:35;;;;;;;4.55;1.10;;;;;;;13.59;84.93;92485.72;5023422;28;20111;-64
2023/03/09 07:40:02;;;;;;;4.80;1.52;;;;;;;16.21;63.79;92482.56;5023859;28;20041;-63
2023/03/09 07:42:29;;;;;;;5.25;1.40;;;;;;;15.04;61.86;92485.31;5027005;28;20115;-64
2023/03/09 07:45:04;;;;;;;5.18;1.67;;;;;;;17.91;53.84;92501.31;5020393;28;20631;-63
2023/03/09 07:47:32;;;;;;;4.13;1.10;;;;;;;16.44;54.45;92493.88;5023802;28;20057;-63
2023/03/09 07:49:59;;;;;;;3.00;1.17;;;;;;;16.00;53.96;92492.91;5026104;28;20048;-63
2023/03/09 07:52:30;;;;;;;4.25;1.38;;;;;;;14.28;63.89;92499.59;5026543;28;20037;-63
2023/03/09 07:55:01;;;;;;;3.75;1.20;;;;;;;12.56;67.17;92497.69;5033398;28;20041;-64
2023/03/09 07:57:32;;;;;;;2.95;1.13;;;;;;;13.41;64.29;92518.94;5035123;28;20098;-63
2023/03/09 07:59:59;;;;;;;4.33;1.40;;;;;;;14.69;61.14;92510.84;5030755;28;20045;-62
2023/03/09 08:02:26;;;;;;;3.85;1.10;;;;;;;17.55;51.97;92523.78;5031375;28;20049;-63
2023/03/09 08:04:53;;;;;;;3.10;1.17;;;;;;;16.54;52.63;92525.69;5030982;28;20030;-62
2023/03/09 08:07:20;;;;;;;4.22;1.30;;;;;;;16.40;50.45;92527.34;5029521;28;20045;-63
2023/03/09 08:09:47;;;;;;;5.88;1.42;;;;;;;16.16;50.63;92539.41;5030556;28;20046;-63
2023/03/09 08:12:13;;;;;;;3.53;1.10;;;;;;;17.75;47.84;92530.47;5035041;28;20047;-62
2023/03/09 08:14:40;;;;;;;4.40;1.05;;;;;;;17.24;47.51;92527.34;5037459;28;20063;-63
2023/03/09 08:17:07;;;;;;;4.45;1.20;;;;;;;16.36;48.88;92540.63;5028799;28;20400;-63
2023/03/09 08:19:34;;;;;;;3.60;1.10;;;;;;;14.77;54.12;92520.31;5030448;28;20041;-62
2023/03/09 08:22:01;;;;;;;3.00;1.10;;;;;;;15.68;52.70;92531.47;5029949;28;20045;-63
2023/03/09 08:24:29;;;;;;;2.60;0.90;;;;;;;13.37;57.16;92532.88;5030292;28;20051;-63
2023/03/09 08:26:55;;;;;;;3.03;1.02;;;;;;;12.50;63.33;92538.06;5028441;28;20516;-62
2023/03/09 08:29:22;;;;;;;3.08;1.38;;;;;;;12.07;67.58;92546.16;5029661;28;20144;-62
2023/03/09 08:31:49;;;;;;;5.70;1.00;;;;;;;11.06;73.91;92571.44;5029374;28;20057;-61
2023/03/09 08:34:18;;;;;;;3.67;1.30;;;;;;;11.76;76.41;92562.78;5030030;28;20486;-63
2023/03/09 08:36:45;;;;;;;3.53;1.17;;;;;;;11.64;79.79;92571.94;5029159;28;20435;-63
2023/03/09 08:39:12;;;;;;;3.63;1.30;;;;;;;10.63;88.48;92589.53;5029861;28;20048;-63
2023/03/09 08:41:39;;;;;;;6.28;1.20;;;;;;;10.33;98.22;92591.78;5029534;28;20049;-62
2023/03/09 08:44:06;;;;;;;4.35;1.00;;;;;;;10.08;100.00;92611.03;5029491;28;20045;-63
2023/03/09 08:46:32;;;;;;;3.50;1.10;;;;;;;9.36;100.00;92616.16;5029665;28;20052;-63
2023/03/09 08:49:00;;;;;;;5.80;1.50;;;;;;;10.77;100.00;92599.22;5029411;28;20045;-63
2023/03/09 08:51:28;;;;;;;3.08;1.10;;;;;;;12.67;89.49;92605.28;5028170;28;20322;-64
2023/03/09 08:53:55;;;;;;;3.47;1.20;;;;;;;14.64;74.69;92599.91;5029332;28;20041;-62
2023/03/09 08:56:22;;;;;;;2.83;1.10;;;;;;;17.05;62.04;92590.72;5029703;28;20049;-62
2023/03/09 08:58:49;;;;;;;2.63;1.10;;;;;;;15.77;63.22;92602.50;5029028;28;20041;-63
2023/03/09 09:01:16;;;;;;;2.87;0.90;;;;;;;15.83;60.25;92611.66;5029495;28;20045;-63
2023/03/09 09:03:42;;;;;;;2.83;0.90;;;;;;;17.11;58.22;92599.09;5029047;28;20515;-63
2023/03/09 09:06:12;;;;;;;2.63;1.00;;;;;;;17.98;54.00;92613.88;5028180;28;20072;-62
2023/03/09 09:08:39;;;;;;;3.03;1.05;;;;;;;18.29;50.33;92608.25;5028854;28;20445;-64
2023/03/09 09:11:15;;;;;;;2.60;1.00;;;;;;;17.25;54.58;92612.06;5029380;28;20517;-63
2023/03/09 09:13:42;;;;;;;2.67;0.90;;;;;;;17.58;51.51;92616.34;5029042;28;20045;-62
2023/03/09 09:16:10;;;;;;;3.10;1.00;;;;;;;15.16;57.00;92623.16;5029409;28;20041;-63
2023/03/09 09:18:38;;;;;;;3.15;1.00;;;;;;;13.77;61.86;92634.50;5027899;28;20044;-63
2023/03/09 09:21:10;;;;;;;4.22;1.52;;;;;;;15.19;60.54;92643.53;5028348;28;20418;-64
2023/03/09 09:23:38;;;;;;;7.47;1.20;;;;;;;14.78;59.71;92649.59;5029090;28;20052;-62
2023/03/09 09:26:06;;;;;;;4.10;1.00;;;;;;;13.97;60.79;92663.50;5028240;28;21572;-62
2023/03/09 09:28:32;;;;;;;3.85;1.00;;;;;;;12.94;65.34;92669.81;5028893;28;20045;-64
2023/03/09 09:31:02;;;;;;;4.55;1.23;;;;;;;12.41;70.71;92668.13;5027096;28;20045;-63
2023/03/09 09:33:30;;;;;;;3.78;1.30;;;;;;;12.77;71.60;92681.13;5027853;28;20037;-63
2023/03/09 09:35:58;;;;;;;4.03;1.20;;;;;;;11.99;78.01;92696.16;5028620;28;20052;-63
2023/03/09 09:38:27;;;;;;;3.90;0.90;;;;;;;11.08;76.53;92702.78;5028746;28;20042;-63
2023/03/09 09:40:57;;;;;;;4.60;1.10;;;;;;;10.60;84.93;92708.38;5027155;28;20063;-63
2023/03/09 09:43:26;;;;;;;3.60;1.00;;;;;;;10.00;85.95;92709.97;5028855;28;20044;-63
2023/03/09 09:45:57;;;;;;;4.85;1.02;;;;;;;10.30;91.17;92707.84;5027415;28;20042;-63
2023/03/09 09:48:25;;;;;;;4.75;0.90;;;;;;;11.92;78.32;92707.47;5029062;28;20045;-63
2023/03/09 09:50:57;;;;;;;3.23;1.10;;;;;;;14.46;66.31;92697.41;5028327;28;20041;-63
2023/03/09 09:53:54;;;;;;;4.47;1.02;;;;;;;13.87;63.13;92703.41;5028727;28;20566;-63
2023/03/09 09:56:26;;;;;;;4.22;1.10;;;;;;;15.26;57.22;92711.53;5028005;28;20753;-62
2023/03/09 09:59:01;;;;;;;3.67;1.00;;;;;;;16.68;53.09;92715.97;5035917;28;20039;-64
2023/03/09 10:01:56;;;;;;;3.10;1.10;;;;;;;18.34;48.85;92707.50;5032660;28;20457;-64
2023/03/09 10:04:32;;;;;;;2.97;1.10;;;;;;;18.29;47.58;92715.78;5027946;28;21620;-64
2023/03/09 10:07:10;;;;;;;3.33;1.10;;;;;;;19.29;44.41;92709.22;5028152;28;20546;-64
2023/03/09 10:09:41;;;;;;;3.60;1.10;;;;;;;19.86;43.19;92706.53;5028651;28;20046;-64
2023/03/09 10:12:17;;;;;;;4.03;0.95;;;;;;;18.61;43.92;92691.47;5027939;28;20736;-64
2023/03/09 10:14:52;;;;;;;6.35;1.30;;;;;;;17.45;47.50;92707.53;5028385;28;20489;-63
2023/03/09 10:17:28;;;;;;;4.60;1.30;;;;;;;18.47;46.27;92697.97;5028795;28;20054;-64
2023/03/09 10:19:59;;;;;;;4.43;1.40;;;;;;;18.81;45.04;92698.94;5030088;28;20517;-64
2023/03/09 10:22:26;;;;;;;6.43;1.45;;;;;;;19.01;44.07;92689.66;5032430;28;20037;-64
2023/03/09 10:24:55;;;;;;;5.20;1.25;;;;;;;20.19;40.75;92688.34;5031962;28;20041;-64
2023/03/09 10:28:02;;;;;;;4.55;1.25;;;;;;;18.13;43.40;92695.00;5032604;28;20114;-64
2023/03/09 10:30:39;;;;;;;5.20;1.10;;;;;;;17.87;43.55;92686.75;5038306;28;20214;-64
2023/03/09 10:33:14;;;;;;;4.82;1.10;;;;;;;16.56;45.81;92692.91;5033889;28;20094;-64
2023/03/09 10:35:53;;;;;;;8.40;1.40;;;;;;;16.61;47.33;92685.16;5031999;28;20245;-64
2023/03/09 10:38:23;;;;;;;4.80;1.20;;;;;;;15.57;48.55;92684.16;5032078;28;20064;-63
2023/03/09 10:40:55;;;;;;;5.60;1.30;;;;;;;14.02;53.38;92706.97;5031556;28;20064;-63
2023/03/09 10:43:36;;;;;;;5.60;1.50;;;;;;;13.53;54.43;92684.06;5032233;28;20041;-63
2023/03/09 10:46:18;;;;;;;6.07;1.25;;;;;;;14.36;53.86;92702.22;5031300;28;20501;-64
2023/03/09 10:48:48;;;;;;;6.07;1.27;;;;;;;13.67;56.07;92690.91;5020144;28;20053;-63
2023/03/09 10:51:25;;;;;;;4.93;1.60;;;;;;;15.96;49.87;92670.19;5031662;28;20107;-64
2023/03/09 10:53:54;;;;;;;5.35;1.17;;;;;;;16.83;47.48;92679.91;5030127;28;20499;-64
2023/03/09 10:56:27;;;;;;;6.93;1.20;;;;;;;17.06;46.75;92680.16;5031772;28;20053;-64
2023/03/09 10:59:06;;;;;;;4.20;1.30;;;;;;;15.54;49.88;92679.59;5031255;28;20051;-63
2023/03/09 11:01:35;;;;;;;7.22;1.25;;;;;;;15.27;50.09;92679.88;5031690;28;20089;-63
2023/03/09 11:04:22;;;;;;;4.50;1.30;;;;;;;15.18;51.42;92692.53;5031122;28;20406;-63
2023/03/09 11:06:50;;;;;;;5.05;1.33;;;;;;;15.29;51.22;92689.22;5030738;28;20041;-64
2023/03/09 11:09:43;;;;;;;5.37;1.40;;;;;;;15.06;51.30;92673.47;5031625;28;20092;-63
2023/03/09 11:12:16;;;;;;;3.75;1.00;;;;;;;16.49;46.83;92654.53;5010960;28;20042;-63
2023/03/09 11:14:57;;;;;;;6.35;2.35;;;;;;;16.01;49.74;92670.75;5031044;28;20052;-63
2023/03/09 11:17:37;;;;;;;6.75;2.60;;;;;;;18.06;44.63;92678.78;5018733;28;20054;-63
2023/03/09 11:20:35;;;;;;;2.50;0.90;;;;;;;16.50;46.96;92677.44;5030426;28;20707;-64
2023/03/09 11:23:14;;;;;;;2.67;0.90;;;;;;;17.45;46.44;92674.25;5030903;28;20106;-63
2023/03/09 11:26:00;;;;;;;3.83;1.00;;;;;;;14.90;51.31;92680.22;5031001;28;20045;-63
2023/03/09 11:28:51;;;;;;;3.42;1.23;;;;;;;13.15;57.47;92679.09;5031135;28;20080;-63
2023/03/09 11:31:22;;;;;;;4.60;1.20;;;;;;;14.41;54.69;92689.75;5029215;28;21752;-63
2023/03/09 11:33:52;;;;;;;3.53;1.20;;;;;;;13.57;55.41;92695.69;5030785;28;20042;-63
2023/03/09 11:36:25;;;;;;;2.80;1.00;;;;;;;14.89;53.13;92692.50;5029877;28;20143;-63
2023/03/09 11:38:54;;;;;;;3.97;1.50;;;;;;;15.45;52.40;92682.44;5030561;28;20049;-63
2023/03/09 11:41:30;;;;;;;3.75;1.23;;;;;;;14.73;53.18;92679.91;5029842;28;20049;-63
2023/03/09 11:44:15;;;;;;;5.60;1.10;;;;;;;14.36;54.35;92685.66;5043740;28;20038;-62
2023/03/09 11:46:42;;;;;;;4.03;1.05;;;;;;;15.15;53.01;92692.72;5030385;28;20465;-63